sensor_id;sensor_type;location;lat;lon;timestamp;pressure;altitude;pressure_sealevel;temperature;humidity
5238;BME280;2639;49.700;7.962;2023-06-14T03:01:39;98528.16;;;10.87;90.52
5238;BME280;2639;49.700;7.962;2023-06-14T03:02:46;98523.03;;;10.87;90.65
5238;BME280;2639;49.700;7.962;2023-06-14T03:03:48;98527.38;;;10.88;90.64
5238;BME280;2639;49.700;7.962;2023-06-14T03:04:52;98528.16;;;10.87;90.98
5238;BME280;2639;49.700;7.962;2023-06-14T03:05:54;98529.06;;;10.87;90.42
5238;BME280;2639;49.700;7.962;2023-06-14T03:07:01;98529.94;;;10.88;90.37
5238;BME280;2639;49.700;7.962;2023-06-14T03:08:04;98527.59;;;10.91;90.79
5238;BME280;2639;49.700;7.962;2023-06-14T03:09:09;98531.06;;;10.91;89.86
5238;BME280;2639;49.700;7.962;2023-06-14T03:10:13;98524.13;;;10.90;90.59
5238;BME280;2639;49.700;7.962;2023-06-14T03:11:18;98526.59;;;10.89;90.29
5238;BME280;2639;49.700;7.962;2023-06-14T03:12:23;98528.38;;;10.90;89.80
5238;BME280;2639;49.700;7.962;2023-06-14T03:13:26;98530.16;;;10.91;90.11
5238;BME280;2639;49.700;7.962;2023-06-14T03:14:29;98528.47;;;10.91;89.99
5238;BME280;2639;49.700;7.962;2023-06-14T03:15:34;98527.59;;;10.91;90.05
5238;BME280;2639;49.700;7.962;2023-06-14T03:16:38;98532.63;;;10.89;90.50
5238;BME280;2639;49.700;7.962;2023-06-14T03:17:44;98532.63;;;10.89;90.00
5238;BME280;2639;49.700;7.962;2023-06-14T03:18:51;98540.22;;;10.88;90.19
5238;BME280;2639;49.700;7.962;2023-06-14T03:19:54;98536.63;;;10.86;90.47
5238;BME280;2639;49.700;7.962;2023-06-14T03:20:57;98538.44;;;10.87;90.11
5238;BME280;2639;49.700;7.962;2023-06-14T03:22:02;98531.50;;;10.86;90.84
5238;BME280;2639;49.700;7.962;2023-06-14T03:23:06;98541.00;;;10.87;90.25
5238;BME280;2639;49.700;7.962;2023-06-14T03:24:09;98536.63;;;10.86;90.69
5238;BME280;2639;49.700;7.962;2023-06-14T03:25:12;98543.56;;;10.87;90.14
5238;BME280;2639;49.700;7.962;2023-06-14T03:26:19;98541.00;;;10.87;89.90
5238;BME280;2639;49.700;7.962;2023-06-14T03:27:24;98538.44;;;10.87;90.55
5238;BME280;2639;49.700;7.962;2023-06-14T03:28:31;98544.47;;;10.87;90.58
5238;BME280;2639;49.700;7.962;2023-06-14T03:29:33;98548.72;;;10.87;90.80
5238;BME280;2639;49.700;7.962;2023-06-14T03:30:36;98546.03;;;10.85;90.11
5238;BME280;2639;49.700;7.962;2023-06-14T03:31:56;98547.81;;;10.86;90.28
5238;BME280;2639;49.700;7.962;2023-06-14T03:33:01;98547.81;;;10.86;90.69
5238;BME280;2639;49.700;7.962;2023-06-14T03:34:04;98547.16;;;10.89;90.92
5238;BME280;2639;49.700;7.962;2023-06-14T03:35:08;98545.34;;;10.88;91.57
5238;BME280;2639;49.700;7.962;2023-06-14T03:36:12;98543.78;;;10.90;91.30
5238;BME280;2639;49.700;7.962;2023-06-14T03:37:15;98545.47;;;10.89;90.64
5238;BME280;2639;49.700;7.962;2023-06-14T03:38:17;98544.59;;;10.89;90.66
5238;BME280;2639;49.700;7.962;2023-06-14T03:39:21;98546.22;;;10.88;90.65
5238;BME280;2639;49.700;7.962;2023-06-14T03:40:23;98539.31;;;10.87;90.13
5238;BME280;2639;49.700;7.962;2023-06-14T03:41:34;98546.91;;;10.86;89.84
5238;BME280;2639;49.700;7.962;2023-06-14T03:42:37;98545.13;;;10.85;89.93
5238;BME280;2639;49.700;7.962;2023-06-14T03:43:40;98548.50;;;10.84;90.01
5238;BME280;2639;49.700;7.962;2023-06-14T03:44:42;98545.94;;;10.84;90.63
5238;BME280;2639;49.700;7.962;2023-06-14T03:45:46;98553.66;;;10.84;89.89
5238;BME280;2639;49.700;7.962;2023-06-14T03:46:50;98553.66;;;10.84;90.48
5238;BME280;2639;49.700;7.962;2023-06-14T03:47:53;98548.50;;;10.84;90.46
5238;BME280;2639;49.700;7.962;2023-06-14T03:48:57;98552.03;;;10.86;89.77
5238;BME280;2639;49.700;7.962;2023-06-14T03:50:01;98550.41;;;10.86;89.73
5238;BME280;2639;49.700;7.962;2023-06-14T03:51:04;98551.16;;;10.85;90.43
5238;BME280;2639;49.700;7.962;2023-06-14T03:52:08;98556.31;;;10.85;90.45
5238;BME280;2639;49.700;7.962;2023-06-14T03:53:12;98548.72;;;10.87;89.94
5238;BME280;2639;49.700;7.962;2023-06-14T03:54:19;98554.72;;;10.87;90.29
5238;BME280;2639;49.700;7.962;2023-06-14T03:55:26;98565.00;;;10.87;89.90
5238;BME280;2639;49.700;7.962;2023-06-14T03:56:37;98547.72;;;10.85;90.35
5238;BME280;2639;49.700;7.962;2023-06-14T03:57:42;98560.56;;;10.85;90.09
5238;BME280;2639;49.700;7.962;2023-06-14T03:58:49;98556.97;;;10.83;90.44
5238;BME280;2639;49.700;7.962;2023-06-14T03:59:51;98557.88;;;10.83;90.30
5238;BME280;2639;49.700;7.962;2023-06-14T04:00:54;98559.44;;;10.81;90.52
5238;BME280;2639;49.700;7.962;2023-06-14T04:01:59;98559.44;;;10.81;90.63
5238;BME280;2639;49.700;7.962;2023-06-14T04:03:03;98563.69;;;10.81;90.88
5238;BME280;2639;49.700;7.962;2023-06-14T04:04:06;98562.91;;;10.82;90.24
5238;BME280;2639;49.700;7.962;2023-06-14T04:05:10;98560.34;;;10.82;90.35
5238;BME280;2639;49.700;7.962;2023-06-14T04:06:20;98562.13;;;10.83;90.04
5238;BME280;2639;49.700;7.962;2023-06-14T04:07:24;98566.50;;;10.84;90.45
5238;BME280;2639;49.700;7.962;2023-06-14T04:08:27;98569.69;;;10.81;90.28
5238;BME280;2639;49.700;7.962;2023-06-14T04:09:32;98564.69;;;10.83;90.03
5238;BME280;2639;49.700;7.962;2023-06-14T04:10:35;98569.06;;;10.84;90.47
5238;BME280;2639;49.700;7.962;2023-06-14T04:11:39;98562.31;;;10.86;89.37
5238;BME280;2639;49.700;7.962;2023-06-14T04:12:41;98572.84;;;10.89;89.43
5238;BME280;2639;49.700;7.962;2023-06-14T04:13:45;98569.59;;;10.91;90.34
5238;BME280;2639;49.700;7.962;2023-06-14T04:14:48;98574.81;;;10.93;90.16
5238;BME280;2639;49.700;7.962;2023-06-14T04:15:52;98575.72;;;10.93;90.85
5238;BME280;2639;49.700;7.962;2023-06-14T04:17:01;98575.03;;;10.96;90.73
5238;BME280;2639;49.700;7.962;2023-06-14T04:18:05;98576.81;;;10.97;91.10
5238;BME280;2639;49.700;7.962;2023-06-14T04:19:08;98570.13;;;10.99;91.03
5238;BME280;2639;49.700;7.962;2023-06-14T04:20:11;98578.81;;;11.01;90.67
5238;BME280;2639;49.700;7.962;2023-06-14T04:21:14;98582.97;;;10.99;90.31
5238;BME280;2639;49.700;7.962;2023-06-14T04:22:17;98580.28;;;10.98;90.02
5238;BME280;2639;49.700;7.962;2023-06-14T04:23:22;98570.00;;;10.98;90.04
5238;BME280;2639;49.700;7.962;2023-06-14T04:24:25;98577.06;;;11.00;90.51
5238;BME280;2639;49.700;7.962;2023-06-14T04:25:33;98578.81;;;11.01;89.90
5238;BME280;2639;49.700;7.962;2023-06-14T04:26:36;98579.94;;;11.05;90.28
5238;BME280;2639;49.700;7.962;2023-06-14T04:27:40;98577.47;;;11.06;89.60
5238;BME280;2639;49.700;7.962;2023-06-14T04:28:44;98577.69;;;11.09;90.32
5238;BME280;2639;49.700;7.962;2023-06-14T04:29:48;98582.84;;;11.09;89.94
5238;BME280;2639;49.700;7.962;2023-06-14T04:30:51;98579.47;;;11.10;89.50
5238;BME280;2639;49.700;7.962;2023-06-14T04:31:55;98583.03;;;11.12;90.28
5238;BME280;2639;49.700;7.962;2023-06-14T04:33:02;98587.50;;;11.15;90.72
5238;BME280;2639;49.700;7.962;2023-06-14T04:34:08;98581.47;;;11.14;90.66
5238;BME280;2639;49.700;7.962;2023-06-14T04:35:10;98584.13;;;11.16;90.48
5238;BME280;2639;49.700;7.962;2023-06-14T04:36:16;98586.81;;;11.18;90.79
5238;BME280;2639;49.700;7.962;2023-06-14T04:37:22;98588.63;;;11.19;91.10
5238;BME280;2639;49.700;7.962;2023-06-14T04:38:25;98585.25;;;11.20;91.35
5238;BME280;2639;49.700;7.962;2023-06-14T04:39:29;98589.50;;;11.19;90.40
5238;BME280;2639;49.700;7.962;2023-06-14T04:40:34;98593.06;;;11.21;90.88
5238;BME280;2639;49.700;7.962;2023-06-14T04:41:37;98590.50;;;11.21;90.89
5238;BME280;2639;49.700;7.962;2023-06-14T04:42:42;98589.59;;;11.21;91.90
5238;BME280;2639;49.700;7.962;2023-06-14T04:43:49;98587.25;;;11.24;91.74
5238;BME280;2639;49.700;7.962;2023-06-14T04:44:55;98591.78;;;11.28;91.54
5238;BME280;2639;49.700;7.962;2023-06-14T04:45:57;98590.34;;;11.31;91.67
5238;BME280;2639;49.700;7.962;2023-06-14T04:47:01;98596.59;;;11.35;92.04
5238;BME280;2639;49.700;7.962;2023-06-14T04:48:05;98596.00;;;11.39;91.95
5238;BME280;2639;49.700;7.962;2023-06-14T04:49:08;98593.66;;;11.42;91.24
5238;BME280;2639;49.700;7.962;2023-06-14T04:50:11;98598.13;;;11.45;91.36
5238;BME280;2639;49.700;7.962;2023-06-14T04:51:14;98592.50;;;11.50;91.33
5238;BME280;2639;49.700;7.962;2023-06-14T04:52:17;98603.00;;;11.53;91.36
5238;BME280;2639;49.700;7.962;2023-06-14T04:53:22;98604.09;;;11.57;91.60
5238;BME280;2639;49.700;7.962;2023-06-14T04:54:28;98600.94;;;11.61;90.76
5238;BME280;2639;49.700;7.962;2023-06-14T04:55:34;98600.25;;;11.64;90.61
5238;BME280;2639;49.700;7.962;2023-06-14T04:56:37;98601.34;;;11.67;90.54
5238;BME280;2639;49.700;7.962;2023-06-14T04:57:40;98598.88;;;11.69;90.60
5238;BME280;2639;49.700;7.962;2023-06-14T04:58:44;98604.22;;;11.72;90.97
5238;BME280;2639;49.700;7.962;2023-06-14T04:59:46;98607.03;;;11.75;91.05
5238;BME280;2639;49.700;7.962;2023-06-14T06:43:51;98612.44;;;18.40;59.83
5238;BME280;2639;49.700;7.962;2023-06-14T06:45:03;98611.13;;;18.50;58.92
5238;BME280;2639;49.700;7.962;2023-06-14T06:46:05;98619.25;;;18.58;59.00
5238;BME280;2639;49.700;7.962;2023-06-14T06:47:08;98615.06;;;18.61;58.24
5238;BME280;2639;49.700;7.962;2023-06-14T06:48:11;98614.22;;;18.62;57.16
5238;BME280;2639;49.700;7.962;2023-06-14T06:49:14;98621.19;;;18.63;57.67
5238;BME280;2639;49.700;7.962;2023-06-14T06:50:17;98619.72;;;18.70;58.06
5238;BME280;2639;49.700;7.962;2023-06-14T06:51:21;98617.97;;;18.69;57.28
5238;BME280;2639;49.700;7.962;2023-06-14T06:52:24;98618.97;;;18.72;57.71
5238;BME280;2639;49.700;7.962;2023-06-14T06:53:28;98620.91;;;18.77;57.69
5238;BME280;2639;49.700;7.962;2023-06-14T06:54:43;98625.34;;;18.79;56.73
5238;BME280;2639;49.700;7.962;2023-06-14T06:55:47;98623.88;;;18.86;57.09
5238;BME280;2639;49.700;7.962;2023-06-14T06:56:50;98624.94;;;18.91;57.43
5238;BME280;2639;49.700;7.962;2023-06-14T06:57:52;98619.22;;;19.00;56.29
5238;BME280;2639;49.700;7.962;2023-06-14T06:58:58;98623.81;;;19.07;54.74
5238;BME280;2639;49.700;7.962;2023-06-14T07:00:01;98624.69;;;19.07;55.22
5238;BME280;2639;49.700;7.962;2023-06-14T07:01:04;98627.31;;;19.07;54.53
5238;BME280;2639;49.700;7.962;2023-06-14T07:02:08;98621.91;;;19.03;54.38
5238;BME280;2639;49.700;7.962;2023-06-14T07:03:10;98621.28;;;19.08;54.53
5238;BME280;2639;49.700;7.962;2023-06-14T07:04:14;98621.41;;;19.11;54.78
5238;BME280;2639;49.700;7.962;2023-06-14T07:05:17;98631.22;;;19.19;54.94
5238;BME280;2639;49.700;7.962;2023-06-14T07:06:20;98633.06;;;19.21;56.25
5238;BME280;2639;49.700;7.962;2023-06-14T07:07:24;98628.97;;;19.28;56.31
5238;BME280;2639;49.700;7.962;2023-06-14T07:08:26;98625.94;;;19.40;55.04
5238;BME280;2639;49.700;7.962;2023-06-14T07:09:29;98633.94;;;19.44;54.86
5238;BME280;2639;49.700;7.962;2023-06-14T07:10:32;98626.25;;;19.47;53.59
5238;BME280;2639;49.700;7.962;2023-06-14T07:11:35;98621.94;;;19.48;53.58
5238;BME280;2639;49.700;7.962;2023-06-14T07:12:37;98628.91;;;19.49;53.48
5238;BME280;2639;49.700;7.962;2023-06-14T07:13:41;98630.78;;;19.53;53.71
5238;BME280;2639;49.700;7.962;2023-06-14T07:14:45;98630.00;;;19.55;53.81
5238;BME280;2639;49.700;7.962;2023-06-14T07:15:48;98631.81;;;19.57;54.23
5238;BME280;2639;49.700;7.962;2023-06-14T07:16:54;98631.81;;;19.57;53.29
5238;BME280;2639;49.700;7.962;2023-06-14T07:17:56;98633.63;;;19.59;53.31
5238;BME280;2639;49.700;7.962;2023-06-14T07:19:02;98635.84;;;19.71;54.29
5238;BME280;2639;49.700;7.962;2023-06-14T07:20:05;98640.34;;;19.75;54.81
5238;BME280;2639;49.700;7.962;2023-06-14T07:21:14;98646.34;;;19.74;53.16
5238;BME280;2639;49.700;7.962;2023-06-14T07:22:17;98649.06;;;19.77;52.83
5238;BME280;2639;49.700;7.962;2023-06-14T07:23:20;98642.19;;;19.79;52.24
5238;BME280;2639;49.700;7.962;2023-06-14T07:24:23;98652.63;;;19.79;52.67
5238;BME280;2639;49.700;7.962;2023-06-14T07:25:26;98638.78;;;19.80;51.78
5238;BME280;2639;49.700;7.962;2023-06-14T07:26:30;98646.78;;;19.86;52.67
5238;BME280;2639;49.700;7.962;2023-06-14T07:27:33;98645.13;;;19.88;52.06
5238;BME280;2639;49.700;7.962;2023-06-14T07:28:36;98645.38;;;19.94;52.51
5238;BME280;2639;49.700;7.962;2023-06-14T07:29:39;98643.81;;;20.00;52.68
5238;BME280;2639;49.700;7.962;2023-06-14T07:30:42;98644.03;;;20.06;52.62
5238;BME280;2639;49.700;7.962;2023-06-14T07:31:46;98647.59;;;20.08;51.77
5238;BME280;2639;49.700;7.962;2023-06-14T07:32:48;98640.81;;;20.13;51.79
5238;BME280;2639;49.700;7.962;2023-06-14T07:33:52;98650.00;;;20.27;52.08
5238;BME280;2639;49.700;7.962;2023-06-14T07:34:55;98644.06;;;20.31;51.43
5238;BME280;2639;49.700;7.962;2023-06-14T07:35:58;98639.88;;;20.36;51.43
5238;BME280;2639;49.700;7.962;2023-06-14T07:37:01;98648.75;;;20.42;51.81
5238;BME280;2639;49.700;7.962;2023-06-14T07:38:04;98640.19;;;20.46;52.03
5238;BME280;2639;49.700;7.962;2023-06-14T07:39:07;98649.19;;;20.54;51.36
5238;BME280;2639;49.700;7.962;2023-06-14T07:40:10;98640.50;;;20.55;51.16
5238;BME280;2639;49.700;7.962;2023-06-14T07:41:13;98649.84;;;20.48;50.83
5238;BME280;2639;49.700;7.962;2023-06-14T07:42:15;98646.28;;;20.46;50.29
5238;BME280;2639;49.700;7.962;2023-06-14T07:43:18;98647.94;;;20.44;50.49
5238;BME280;2639;49.700;7.962;2023-06-14T07:44:23;98655.75;;;20.43;50.60
5238;BME280;2639;49.700;7.962;2023-06-14T07:45:26;98645.31;;;20.43;50.81
5238;BME280;2639;49.700;7.962;2023-06-14T07:46:31;98644.41;;;20.42;50.15
5238;BME280;2639;49.700;7.962;2023-06-14T07:47:36;98643.75;;;20.48;50.69
5238;BME280;2639;49.700;7.962;2023-06-14T07:48:39;98649.75;;;20.45;49.79
5238;BME280;2639;49.700;7.962;2023-06-14T07:49:43;98648.91;;;20.46;50.30
5238;BME280;2639;49.700;7.962;2023-06-14T07:50:45;98646.56;;;20.54;50.35
5238;BME280;2639;49.700;7.962;2023-06-14T07:51:48;98646.59;;;20.55;50.57
5238;BME280;2639;49.700;7.962;2023-06-14T07:52:51;98654.69;;;20.63;51.38
5238;BME280;2639;49.700;7.962;2023-06-14T07:53:55;98649.69;;;20.69;51.16
5238;BME280;2639;49.700;7.962;2023-06-14T07:54:58;98655.06;;;20.74;50.03
5238;BME280;2639;49.700;7.962;2023-06-14T07:56:02;98648.03;;;20.71;49.85
5238;BME280;2639;49.700;7.962;2023-06-14T07:57:04;98642.72;;;20.68;49.71
5238;BME280;2639;49.700;7.962;2023-06-14T07:58:08;98648.03;;;20.71;49.90
5238;BME280;2639;49.700;7.962;2023-06-14T07:59:10;98646.38;;;20.73;50.13
5238;BME280;2639;49.700;7.962;2023-06-14T08:00:14;98645.56;;;20.76;49.47
5238;BME280;2639;49.700;7.962;2023-06-14T08:01:17;98646.75;;;20.86;49.94
5238;BME280;2639;49.700;7.962;2023-06-14T08:02:24;98641.03;;;20.97;50.09
5238;BME280;2639;49.700;7.962;2023-06-14T08:03:26;98642.13;;;21.04;50.88
5238;BME280;2639;49.700;7.962;2023-06-14T08:04:29;98644.06;;;21.11;49.62
5238;BME280;2639;49.700;7.962;2023-06-14T08:05:32;98637.91;;;21.09;48.91
5238;BME280;2639;49.700;7.962;2023-06-14T08:06:36;98638.97;;;21.14;49.13
5238;BME280;2639;49.700;7.962;2023-06-14T08:07:39;98638.97;;;21.14;48.81
5238;BME280;2639;49.700;7.962;2023-06-14T08:08:44;98639.84;;;21.15;48.75
5238;BME280;2639;49.700;7.962;2023-06-14T08:09:46;98634.84;;;21.22;48.75
5238;BME280;2639;49.700;7.962;2023-06-14T08:10:49;98633.25;;;21.26;48.54
5238;BME280;2639;49.700;7.962;2023-06-14T08:11:51;98634.19;;;21.30;49.50
5238;BME280;2639;49.700;7.962;2023-06-14T08:12:54;98633.50;;;21.35;48.82
5238;BME280;2639;49.700;7.962;2023-06-14T08:13:57;98638.06;;;21.41;48.40
5238;BME280;2639;49.700;7.962;2023-06-14T08:15:00;98644.28;;;21.45;48.98
5238;BME280;2639;49.700;7.962;2023-06-14T08:16:09;98639.63;;;21.36;48.76
5238;BME280;2639;49.700;7.962;2023-06-14T08:17:13;98641.16;;;21.29;47.87
5238;BME280;2639;49.700;7.962;2023-06-14T08:18:16;98632.53;;;21.32;48.60
5238;BME280;2639;49.700;7.962;2023-06-14T08:19:20;98639.63;;;21.37;47.62
5238;BME280;2639;49.700;7.962;2023-06-14T08:20:23;98639.78;;;21.40;47.84
5238;BME280;2639;49.700;7.962;2023-06-14T08:21:27;98638.06;;;21.41;47.73
5238;BME280;2639;49.700;7.962;2023-06-14T08:22:31;98634.59;;;21.42;48.03
5238;BME280;2639;49.700;7.962;2023-06-14T08:23:36;98631.34;;;21.49;48.44
5238;BME280;2639;49.700;7.962;2023-06-14T08:24:39;98636.72;;;21.55;48.24
5238;BME280;2639;49.700;7.962;2023-06-14T08:25:42;98640.34;;;21.60;48.26
5238;BME280;2639;49.700;7.962;2023-06-14T08:26:45;98641.34;;;21.64;48.54
5238;BME280;2639;49.700;7.962;2023-06-14T08:27:48;98640.63;;;21.70;48.97
5238;BME280;2639;49.700;7.962;2023-06-14T08:28:51;98635.50;;;21.73;48.50
5238;BME280;2639;49.700;7.962;2023-06-14T08:29:54;98642.69;;;21.80;48.68
5238;BME280;2639;49.700;7.962;2023-06-14T08:30:56;98639.22;;;21.81;48.89
5238;BME280;2639;49.700;7.962;2023-06-14T08:32:00;98648.16;;;21.89;48.88
5238;BME280;2639;49.700;7.962;2023-06-14T08:33:02;98642.94;;;21.89;47.43
5238;BME280;2639;49.700;7.962;2023-06-14T08:34:18;98646.22;;;21.82;47.08
5238;BME280;2639;49.700;7.962;2023-06-14T08:35:22;98643.69;;;21.85;46.68
5238;BME280;2639;49.700;7.962;2023-06-14T08:36:25;98646.22;;;21.82;46.28
5238;BME280;2639;49.700;7.962;2023-06-14T08:37:28;98650.78;;;21.89;47.12
5238;BME280;2639;49.700;7.962;2023-06-14T08:38:31;98644.63;;;21.87;46.14
5238;BME280;2639;49.700;7.962;2023-06-14T08:39:34;98643.63;;;21.82;47.02
5238;BME280;2639;49.700;7.962;2023-06-14T08:40:40;98648.88;;;21.83;47.06
5238;BME280;2639;49.700;7.962;2023-06-14T08:41:46;98651.72;;;21.91;47.96
5238;BME280;2639;49.700;7.962;2023-06-14T08:42:51;98649.25;;;21.97;47.46
5238;BME280;2639;49.700;7.962;2023-06-14T08:43:55;98651.78;;;21.94;46.66
5238;BME280;2639;49.700;7.962;2023-06-14T08:44:58;98646.81;;;22.03;47.68
5238;BME280;2639;49.700;7.962;2023-06-14T08:46:03;98658.28;;;22.09;47.16
5238;BME280;2639;49.700;7.962;2023-06-14T08:47:07;98650.69;;;22.18;46.62
5238;BME280;2639;49.700;7.962;2023-06-14T08:48:10;98633.41;;;22.23;46.63
5238;BME280;2639;49.700;7.962;2023-06-14T08:49:16;98642.16;;;22.23;47.37
5238;BME280;2639;49.700;7.962;2023-06-14T08:50:21;98643.88;;;22.23;47.24
5238;BME280;2639;49.700;7.962;2023-06-14T08:51:31;98646.50;;;22.23;47.41
5238;BME280;2639;49.700;7.962;2023-06-14T08:52:38;98633.50;;;22.26;45.62
5238;BME280;2639;49.700;7.962;2023-06-14T08:53:43;98649.09;;;22.23;45.86
5238;BME280;2639;49.700;7.962;2023-06-14T08:54:47;98649.88;;;22.19;45.44
5238;BME280;2639;49.700;7.962;2023-06-14T08:55:50;98653.31;;;22.18;46.23
5238;BME280;2639;49.700;7.962;2023-06-14T08:56:55;98652.47;;;22.19;46.23
5238;BME280;2639;49.700;7.962;2023-06-14T08:58:00;98648.94;;;22.17;44.64
5238;BME280;2639;49.700;7.962;2023-06-14T08:59:06;98649.16;;;22.24;43.45
5238;BME280;2639;49.700;7.962;2023-06-14T09:00:09;98655.38;;;22.28;43.43
5238;BME280;2639;49.700;7.962;2023-06-14T09:01:15;98648.53;;;22.35;43.33
5238;BME280;2639;49.700;7.962;2023-06-14T09:02:19;98644.03;;;22.29;43.60
5238;BME280;2639;49.700;7.962;2023-06-14T09:03:24;98642.28;;;22.28;44.60
5238;BME280;2639;49.700;7.962;2023-06-14T09:04:31;98640.63;;;22.32;43.87
5238;BME280;2639;49.700;7.962;2023-06-14T09:05:36;98648.34;;;22.27;43.91
5238;BME280;2639;49.700;7.962;2023-06-14T09:06:40;98641.38;;;22.27;44.20
5238;BME280;2639;49.700;7.962;2023-06-14T09:07:43;98649.28;;;22.29;43.51
5238;BME280;2639;49.700;7.962;2023-06-14T09:08:46;98640.75;;;22.36;43.27
5238;BME280;2639;49.700;7.962;2023-06-14T09:10:05;98645.97;;;22.36;43.19
5238;BME280;2639;49.700;7.962;2023-06-14T09:11:10;98639.78;;;22.33;43.61
5238;BME280;2639;49.700;7.962;2023-06-14T09:12:14;98638.81;;;22.29;43.44
5238;BME280;2639;49.700;7.962;2023-06-14T09:13:17;98639.00;;;22.35;44.35
5238;BME280;2639;49.700;7.962;2023-06-14T09:14:24;98638.13;;;22.36;44.08
5238;BME280;2639;49.700;7.962;2023-06-14T09:15:28;98645.91;;;22.33;43.76
5238;BME280;2639;49.700;7.962;2023-06-14T09:16:32;98648.66;;;22.38;45.28
5238;BME280;2639;49.700;7.962;2023-06-14T09:17:35;98648.84;;;22.45;45.69
5238;BME280;2639;49.700;7.962;2023-06-14T09:18:39;98648.16;;;22.53;43.76
5238;BME280;2639;49.700;7.962;2023-06-14T09:19:43;98649.31;;;22.64;42.89
5238;BME280;2639;49.700;7.962;2023-06-14T09:20:48;98649.06;;;22.55;42.62
5238;BME280;2639;49.700;7.962;2023-06-14T09:21:52;98656.91;;;22.55;42.95
5238;BME280;2639;49.700;7.962;2023-06-14T09:22:54;98657.09;;;22.61;43.27
5238;BME280;2639;49.700;7.962;2023-06-14T09:23:58;98655.69;;;22.75;44.06
5238;BME280;2639;49.700;7.962;2023-06-14T09:25:02;98654.72;;;22.72;43.15
5238;BME280;2639;49.700;7.962;2023-06-14T09:26:07;98658.38;;;22.77;42.78
5238;BME280;2639;49.700;7.962;2023-06-14T09:27:15;98653.25;;;22.83;42.74
5238;BME280;2639;49.700;7.962;2023-06-14T09:28:17;98649.75;;;22.82;41.50
5238;BME280;2639;49.700;7.962;2023-06-14T09:29:22;98655.84;;;22.81;42.04
5238;BME280;2639;49.700;7.962;2023-06-14T09:30:24;98651.50;;;22.82;43.20
5238;BME280;2639;49.700;7.962;2023-06-14T09:31:27;98653.31;;;22.84;43.20
5238;BME280;2639;49.700;7.962;2023-06-14T09:32:36;98656.97;;;22.93;43.72
5238;BME280;2639;49.700;7.962;2023-06-14T09:33:41;98650.91;;;22.94;42.86
5238;BME280;2639;49.700;7.962;2023-06-14T09:34:49;98650.03;;;22.93;43.61
5238;BME280;2639;49.700;7.962;2023-06-14T09:35:54;98654.44;;;22.96;43.25
5238;BME280;2639;49.700;7.962;2023-06-14T09:36:58;98661.63;;;23.03;43.50
5238;BME280;2639;49.700;7.962;2023-06-14T09:38:00;98660.88;;;23.08;43.80
5238;BME280;2639;49.700;7.962;2023-06-14T09:39:03;98650.41;;;23.07;39.85
5238;BME280;2639;49.700;7.962;2023-06-14T09:40:08;98659.84;;;23.02;40.60
5238;BME280;2639;49.700;7.962;2023-06-14T09:41:11;98652.59;;;22.92;40.54
5238;BME280;2639;49.700;7.962;2023-06-14T09:42:16;98672.47;;;22.83;41.91
5238;BME280;2639;49.700;7.962;2023-06-14T09:43:20;98666.22;;;22.78;41.56
5238;BME280;2639;49.700;7.962;2023-06-14T09:44:25;98665.19;;;22.70;40.45
5238;BME280;2639;49.700;7.962;2023-06-14T09:45:30;98659.00;;;22.68;40.99
5238;BME280;2639;49.700;7.962;2023-06-14T09:46:34;98665.28;;;22.75;41.58
5238;BME280;2639;49.700;7.962;2023-06-14T09:47:39;98662.78;;;22.79;41.27
5238;BME280;2639;49.700;7.962;2023-06-14T09:48:57;98662.00;;;22.83;41.48
5238;BME280;2639;49.700;7.962;2023-06-14T09:50:01;98658.59;;;22.87;42.44
5238;BME280;2639;49.700;7.962;2023-06-14T09:51:06;98655.16;;;22.90;42.34
5238;BME280;2639;49.700;7.962;2023-06-14T09:52:10;98659.03;;;23.03;42.85
5238;BME280;2639;49.700;7.962;2023-06-14T09:53:15;98657.44;;;23.09;43.15
5238;BME280;2639;49.700;7.962;2023-06-14T09:54:22;98666.88;;;23.04;43.34
5238;BME280;2639;49.700;7.962;2023-06-14T09:55:30;98652.00;;;23.02;41.71
5238;BME280;2639;49.700;7.962;2023-06-14T09:56:35;98656.41;;;23.03;42.79
5238;BME280;2639;49.700;7.962;2023-06-14T09:57:41;98656.53;;;23.09;43.30
5238;BME280;2639;49.700;7.962;2023-06-14T09:58:44;98662.06;;;23.21;42.92
5238;BME280;2639;49.700;7.962;2023-06-14T10:00:07;98657.00;;;23.29;41.99
5238;BME280;2639;49.700;7.962;2023-06-14T10:01:14;98660.63;;;23.36;42.04
5238;BME280;2639;49.700;7.962;2023-06-14T10:02:22;98659.00;;;23.41;42.24
5238;BME280;2639;49.700;7.962;2023-06-14T10:03:28;98655.53;;;23.42;42.10
5238;BME280;2639;49.700;7.962;2023-06-14T10:04:58;98661.88;;;23.51;42.79
5238;BME280;2639;49.700;7.962;2023-06-14T10:06:09;98654.97;;;23.57;41.83
5238;BME280;2639;49.700;7.962;2023-06-14T10:07:14;98649.88;;;23.64;41.85
5238;BME280;2639;49.700;7.962;2023-06-14T10:08:23;98651.50;;;23.58;41.47
5238;BME280;2639;49.700;7.962;2023-06-14T10:09:29;98647.78;;;23.48;42.63
5238;BME280;2639;49.700;7.962;2023-06-14T10:10:34;98646.56;;;23.30;41.98
5238;BME280;2639;49.700;7.962;2023-06-14T10:11:37;98650.94;;;23.31;42.53
5238;BME280;2639;49.700;7.962;2023-06-14T10:12:46;98658.94;;;23.38;42.56
5238;BME280;2639;49.700;7.962;2023-06-14T10:13:50;98657.34;;;23.46;41.94
5238;BME280;2639;49.700;7.962;2023-06-14T10:14:55;98666.22;;;23.51;43.30
5238;BME280;2639;49.700;7.962;2023-06-14T10:16:05;98652.22;;;23.50;42.28
5238;BME280;2639;49.700;7.962;2023-06-14T10:17:20;98662.53;;;23.43;42.29
5238;BME280;2639;49.700;7.962;2023-06-14T10:18:31;98648.56;;;23.44;42.24
5238;BME280;2639;49.700;7.962;2023-06-14T10:19:41;98648.66;;;23.47;42.22
5238;BME280;2639;49.700;7.962;2023-06-14T10:20:50;98654.84;;;23.50;41.25
5238;BME280;2639;49.700;7.962;2023-06-14T10:21:58;98651.91;;;23.37;41.73
5238;BME280;2639;49.700;7.962;2023-06-14T10:23:07;98652.56;;;23.26;42.29
5238;BME280;2639;49.700;7.962;2023-06-14T10:24:13;98653.50;;;23.28;43.59
5238;BME280;2639;49.700;7.962;2023-06-14T10:25:26;98653.75;;;23.41;42.82
5238;BME280;2639;49.700;7.962;2023-06-14T10:26:29;98659.03;;;23.42;43.00
5238;BME280;2639;49.700;7.962;2023-06-14T10:27:33;98648.31;;;23.31;41.85
5238;BME280;2639;49.700;7.962;2023-06-14T10:28:37;98650.19;;;23.37;44.25
5238;BME280;2639;49.700;7.962;2023-06-14T10:30:02;98644.34;;;23.50;42.84
5238;BME280;2639;49.700;7.962;2023-06-14T10:31:06;98645.38;;;23.57;42.31
5238;BME280;2639;49.700;7.962;2023-06-14T10:32:10;98648.25;;;23.69;42.87
5238;BME280;2639;49.700;7.962;2023-06-14T10:33:15;98650.81;;;23.66;42.54
5238;BME280;2639;49.700;7.962;2023-06-14T10:34:22;98651.63;;;23.64;42.89
5238;BME280;2639;49.700;7.962;2023-06-14T10:35:25;98642.22;;;23.73;43.83
5238;BME280;2639;49.700;7.962;2023-06-14T10:36:29;98649.38;;;23.81;43.00